sensor_id;sensor_type;location;lat;lon;timestamp;P1;durP1;ratioP1;P2;durP2;ratioP2
32746;SDS011;19118;50.860;13.662;2023-03-01T00:00:37;38.05;;;16.75;;
32746;SDS011;19118;50.860;13.662;2023-03-01T00:05:43;38.83;;;19.25;;
32746;SDS011;19118;50.860;13.662;2023-03-01T00:10:44;38.75;;;17.35;;
32746;SDS011;19118;50.860;13.662;2023-03-01T00:15:44;40.75;;;19.33;;
32746;SDS011;19118;50.860;13.662;2023-03-01T00:20:51;40.83;;;18.67;;
32746;SDS011;19118;50.860;13.662;2023-03-01T00:25:53;44.72;;;19.00;;
32746;SDS011;19118;50.860;13.662;2023-03-01T00:30:53;40.13;;;18.92;;
32746;SDS011;19118;50.860;13.662;2023-03-01T00:35:54;42.30;;;18.23;;
32746;SDS011;19118;50.860;13.662;2023-03-01T00:40:54;46.35;;;18.77;;
32746;SDS011;19118;50.860;13.662;2023-03-01T00:45:55;45.78;;;18.83;;
32746;SDS011;19118;50.860;13.662;2023-03-01T00:50:56;40.72;;;18.25;;
32746;SDS011;19118;50.860;13.662;2023-03-01T00:55:57;48.38;;;20.42;;
32746;SDS011;19118;50.860;13.662;2023-03-01T01:00:58;39.25;;;18.05;;
32746;SDS011;19118;50.860;13.662;2023-03-01T01:05:58;47.30;;;17.23;;
32746;SDS011;19118;50.860;13.662;2023-03-01T01:10:59;35.25;;;16.80;;
32746;SDS011;19118;50.860;13.662;2023-03-01T01:16:02;38.70;;;16.73;;
32746;SDS011;19118;50.860;13.662;2023-03-01T01:21:07;38.15;;;16.77;;
32746;SDS011;19118;50.860;13.662;2023-03-01T01:26:11;45.15;;;17.73;;
32746;SDS011;19118;50.860;13.662;2023-03-01T01:31:25;41.30;;;17.88;;
32746;SDS011;19118;50.860;13.662;2023-03-01T01:36:28;41.38;;;17.65;;
32746;SDS011;19118;50.860;13.662;2023-03-01T01:41:29;34.97;;;17.77;;
32746;SDS011;19118;50.860;13.662;2023-03-01T01:46:30;36.15;;;16.75;;
32746;SDS011;19118;50.860;13.662;2023-03-01T01:51:35;36.25;;;16.80;;
32746;SDS011;19118;50.860;13.662;2023-03-01T01:56:40;39.50;;;17.48;;
32746;SDS011;19118;50.860;13.662;2023-03-01T02:01:44;37.60;;;17.63;;
32746;SDS011;19118;50.860;13.662;2023-03-01T02:06:46;44.85;;;18.27;;
32746;SDS011;19118;50.860;13.662;2023-03-01T02:11:51;38.38;;;17.67;;
32746;SDS011;19118;50.860;13.662;2023-03-01T02:16:53;41.42;;;18.35;;
32746;SDS011;19118;50.860;13.662;2023-03-01T02:21:57;38.05;;;17.35;;
32746;SDS011;19118;50.860;13.662;2023-03-01T02:27:27;46.75;;;20.55;;
32746;SDS011;19118;50.860;13.662;2023-03-01T02:32:39;40.13;;;18.13;;
32746;SDS011;19118;50.860;13.662;2023-03-01T02:37:41;37.95;;;17.20;;
32746;SDS011;19118;50.860;13.662;2023-03-01T02:42:48;39.28;;;18.30;;
32746;SDS011;19118;50.860;13.662;2023-03-01T02:47:55;35.33;;;17.45;;
32746;SDS011;19118;50.860;13.662;2023-03-01T02:58:21;41.17;;;17.75;;
32746;SDS011;19118;50.860;13.662;2023-03-01T03:03:22;46.83;;;18.63;;
32746;SDS011;19118;50.860;13.662;2023-03-01T03:08:22;40.50;;;17.35;;
32746;SDS011;19118;50.860;13.662;2023-03-01T03:13:24;38.33;;;17.50;;
32746;SDS011;19118;50.860;13.662;2023-03-01T03:18:29;44.10;;;18.15;;
32746;SDS011;19118;50.860;13.662;2023-03-01T03:23:29;43.28;;;18.10;;
32746;SDS011;19118;50.860;13.662;2023-03-01T03:28:30;46.72;;;18.65;;
32746;SDS011;19118;50.860;13.662;2023-03-01T03:33:32;49.75;;;20.52;;
32746;SDS011;19118;50.860;13.662;2023-03-01T03:38:32;39.88;;;18.35;;
32746;SDS011;19118;50.860;13.662;2023-03-01T03:43:34;43.38;;;17.95;;
32746;SDS011;19118;50.860;13.662;2023-03-01T03:48:37;43.83;;;17.50;;
32746;SDS011;19118;50.860;13.662;2023-03-01T03:53:39;42.75;;;17.80;;
32746;SDS011;19118;50.860;13.662;2023-03-01T03:58:40;42.13;;;17.60;;
32746;SDS011;19118;50.860;13.662;2023-03-01T04:03:41;43.50;;;18.20;;
32746;SDS011;19118;50.860;13.662;2023-03-01T04:08:41;39.03;;;18.80;;
32746;SDS011;19118;50.860;13.662;2023-03-01T04:13:42;56.38;;;21.65;;
32746;SDS011;19118;50.860;13.662;2023-03-01T04:18:42;46.00;;;16.85;;
32746;SDS011;19118;50.860;13.662;2023-03-01T04:23:42;43.45;;;17.45;;
32746;SDS011;19118;50.860;13.662;2023-03-01T04:28:43;43.03;;;18.05;;
32746;SDS011;19118;50.860;13.662;2023-03-01T04:33:54;49.38;;;19.25;;
32746;SDS011;19118;50.860;13.662;2023-03-01T04:38:55;68.30;;;21.52;;
32746;SDS011;19118;50.860;13.662;2023-03-01T04:43:56;45.03;;;18.98;;
32746;SDS011;19118;50.860;13.662;2023-03-01T04:48:57;49.58;;;18.77;;
32746;SDS011;19118;50.860;13.662;2023-03-01T04:53:57;45.97;;;18.92;;
32746;SDS011;19118;50.860;13.662;2023-03-01T04:58:58;63.58;;;18.50;;
32746;SDS011;19118;50.860;13.662;2023-03-01T05:04:00;41.25;;;17.77;;
32746;SDS011;19118;50.860;13.662;2023-03-01T05:09:03;45.25;;;19.42;;
32746;SDS011;19118;50.860;13.662;2023-03-01T05:14:03;49.45;;;19.63;;
32746;SDS011;19118;50.860;13.662;2023-03-01T05:19:05;47.22;;;18.63;;
32746;SDS011;19118;50.860;13.662;2023-03-01T05:24:11;48.22;;;20.40;;
32746;SDS011;19118;50.860;13.662;2023-03-01T05:29:11;43.45;;;19.38;;
32746;SDS011;19118;50.860;13.662;2023-03-01T05:34:12;42.67;;;18.38;;
32746;SDS011;19118;50.860;13.662;2023-03-01T05:39:12;56.53;;;21.63;;
32746;SDS011;19118;50.860;13.662;2023-03-01T05:44:13;105.95;;;30.60;;
32746;SDS011;19118;50.860;13.662;2023-03-01T05:49:13;51.42;;;20.35;;
32746;SDS011;19118;50.860;13.662;2023-03-01T05:54:14;56.47;;;22.48;;
32746;SDS011;19118;50.860;13.662;2023-03-01T05:59:15;60.58;;;22.27;;
32746;SDS011;19118;50.860;13.662;2023-03-01T06:04:16;57.88;;;22.45;;
32746;SDS011;19118;50.860;13.662;2023-03-01T06:09:16;60.72;;;21.30;;
32746;SDS011;19118;50.860;13.662;2023-03-01T06:14:17;44.85;;;20.38;;
32746;SDS011;19118;50.860;13.662;2023-03-01T06:19:17;56.10;;;21.40;;
32746;SDS011;19118;50.860;13.662;2023-03-01T06:24:17;59.67;;;24.40;;
32746;SDS011;19118;50.860;13.662;2023-03-01T06:29:18;49.60;;;20.98;;
32746;SDS011;19118;50.860;13.662;2023-03-01T06:34:18;65.43;;;23.90;;
32746;SDS011;19118;50.860;13.662;2023-03-01T06:39:19;57.25;;;22.08;;
32746;SDS011;19118;50.860;13.662;2023-03-01T06:44:19;54.53;;;22.27;;
32746;SDS011;19118;50.860;13.662;2023-03-01T06:49:20;50.67;;;21.92;;
32746;SDS011;19118;50.860;13.662;2023-03-01T06:54:21;60.65;;;23.48;;
32746;SDS011;19118;50.860;13.662;2023-03-01T06:59:22;61.47;;;22.95;;
32746;SDS011;19118;50.860;13.662;2023-03-01T07:04:22;68.85;;;22.85;;
32746;SDS011;19118;50.860;13.662;2023-03-01T07:09:23;55.40;;;22.98;;
32746;SDS011;19118;50.860;13.662;2023-03-01T07:14:24;59.00;;;24.65;;
32746;SDS011;19118;50.860;13.662;2023-03-01T07:19:25;128.32;;;38.80;;
32746;SDS011;19118;50.860;13.662;2023-03-01T07:24:26;91.53;;;32.80;;
32746;SDS011;19118;50.860;13.662;2023-03-01T07:29:26;97.28;;;34.20;;
32746;SDS011;19118;50.860;13.662;2023-03-01T07:34:28;64.85;;;28.52;;
32746;SDS011;19118;50.860;13.662;2023-03-01T07:39:29;72.68;;;31.55;;
32746;SDS011;19118;50.860;13.662;2023-03-01T07:44:29;72.43;;;31.45;;
32746;SDS011;19118;50.860;13.662;2023-03-01T07:49:30;63.17;;;30.02;;
32746;SDS011;19118;50.860;13.662;2023-03-01T07:54:30;69.70;;;26.65;;
32746;SDS011;19118;50.860;13.662;2023-03-01T07:59:30;62.78;;;26.55;;
32746;SDS011;19118;50.860;13.662;2023-03-01T08:04:31;62.55;;;27.85;;
32746;SDS011;19118;50.860;13.662;2023-03-01T08:09:36;63.70;;;26.27;;
32746;SDS011;19118;50.860;13.662;2023-03-01T08:14:37;60.80;;;27.45;;
32746;SDS011;19118;50.860;13.662;2023-03-01T08:19:38;55.83;;;24.88;;
32746;SDS011;19118;50.860;13.662;2023-03-01T08:24:38;54.50;;;25.88;;
32746;SDS011;19118;50.860;13.662;2023-03-01T08:29:38;51.53;;;24.70;;
32746;SDS011;19118;50.860;13.662;2023-03-01T08:34:39;54.08;;;25.45;;
32746;SDS011;19118;50.860;13.662;2023-03-01T08:39:39;54.42;;;25.65;;
32746;SDS011;19118;50.860;13.662;2023-03-01T08:44:39;62.63;;;28.90;;
32746;SDS011;19118;50.860;13.662;2023-03-01T08:49:40;61.40;;;27.35;;
32746;SDS011;19118;50.860;13.662;2023-03-01T08:54:40;76.28;;;28.88;;
32746;SDS011;19118;50.860;13.662;2023-03-01T08:59:40;73.15;;;28.90;;
32746;SDS011;19118;50.860;13.662;2023-03-01T09:04:41;65.22;;;27.98;;
32746;SDS011;19118;50.860;13.662;2023-03-01T09:09:42;70.65;;;29.92;;
32746;SDS011;19118;50.860;13.662;2023-03-01T09:14:42;58.95;;;26.23;;
32746;SDS011;19118;50.860;13.662;2023-03-01T09:19:45;43.92;;;22.88;;
32746;SDS011;19118;50.860;13.662;2023-03-01T09:24:46;58.05;;;30.17;;
32746;SDS011;19118;50.860;13.662;2023-03-01T09:29:46;56.72;;;25.65;;
32746;SDS011;19118;50.860;13.662;2023-03-01T09:34:46;55.95;;;25.55;;
32746;SDS011;19118;50.860;13.662;2023-03-01T09:40:06;54.00;;;24.17;;
32746;SDS011;19118;50.860;13.662;2023-03-01T09:45:26;53.03;;;26.13;;
32746;SDS011;19118;50.860;13.662;2023-03-01T09:50:33;49.58;;;24.40;;
32746;SDS011;19118;50.860;13.662;2023-03-01T09:55:39;62.78;;;26.80;;
32746;SDS011;19118;50.860;13.662;2023-03-01T10:01:04;55.38;;;26.45;;
32746;SDS011;19118;50.860;13.662;2023-03-01T10:06:32;55.08;;;25.73;;
32746;SDS011;19118;50.860;13.662;2023-03-01T10:11:35;60.85;;;26.35;;
32746;SDS011;19118;50.860;13.662;2023-03-01T10:16:40;48.97;;;23.60;;
32746;SDS011;19118;50.860;13.662;2023-03-01T10:21:48;56.75;;;26.15;;
32746;SDS011;19118;50.860;13.662;2023-03-01T10:26:54;72.90;;;26.00;;
32746;SDS011;19118;50.860;13.662;2023-03-01T10:31:57;55.22;;;26.13;;
32746;SDS011;19118;50.860;13.662;2023-03-01T10:37:01;65.53;;;27.42;;
32746;SDS011;19118;50.860;13.662;2023-03-01T10:42:29;60.88;;;26.63;;
32746;SDS011;19118;50.860;13.662;2023-03-01T10:47:31;58.53;;;26.92;;
32746;SDS011;19118;50.860;13.662;2023-03-01T10:52:36;63.55;;;29.48;;
32746;SDS011;19118;50.860;13.662;2023-03-01T10:57:38;64.45;;;26.23;;
32746;SDS011;19118;50.860;13.662;2023-03-01T11:02:40;70.60;;;26.40;;
32746;SDS011;19118;50.860;13.662;2023-03-01T11:07:48;52.67;;;24.23;;
32746;SDS011;19118;50.860;13.662;2023-03-01T11:12:51;48.53;;;23.60;;
32746;SDS011;19118;50.860;13.662;2023-03-01T11:17:53;46.03;;;23.17;;
32746;SDS011;19118;50.860;13.662;2023-03-01T11:23:05;54.22;;;23.90;;
32746;SDS011;19118;50.860;13.662;2023-03-01T11:28:12;64.80;;;24.23;;
32746;SDS011;19118;50.860;13.662;2023-03-01T11:33:18;45.45;;;22.52;;
32746;SDS011;19118;50.860;13.662;2023-03-01T11:38:38;45.65;;;22.90;;
32746;SDS011;19118;50.860;13.662;2023-03-01T11:43:44;49.67;;;23.42;;
32746;SDS011;19118;50.860;13.662;2023-03-01T12:04:54;51.13;;;23.63;;
32746;SDS011;19118;50.860;13.662;2023-03-01T12:10:23;45.25;;;22.63;;
32746;SDS011;19118;50.860;13.662;2023-03-01T12:26:34;50.95;;;25.27;;
32746;SDS011;19118;50.860;13.662;2023-03-01T12:32:12;44.93;;;21.93;;
32746;SDS011;19118;50.860;13.662;2023-03-01T12:37:25;39.30;;;22.52;;
32746;SDS011;19118;50.860;13.662;2023-03-01T12:48:17;43.00;;;20.25;;
32746;SDS011;19118;50.860;13.662;2023-03-01T12:53:25;39.08;;;20.17;;
32746;SDS011;19118;50.860;13.662;2023-03-01T13:09:19;40.50;;;18.30;;
32746;SDS011;19118;50.860;13.662;2023-03-01T13:19:33;40.50;;;18.23;;
32746;SDS011;19118;50.860;13.662;2023-03-01T13:24:37;37.08;;;19.77;;
32746;SDS011;19118;50.860;13.662;2023-03-01T13:34:47;43.28;;;18.67;;
32746;SDS011;19118;50.860;13.662;2023-03-01T13:39:49;40.72;;;17.58;;
32746;SDS011;19118;50.860;13.662;2023-03-01T13:44:50;34.40;;;18.70;;
32746;SDS011;19118;50.860;13.662;2023-03-01T13:49:52;40.78;;;20.38;;
32746;SDS011;19118;50.860;13.662;2023-03-01T13:55:03;43.03;;;19.85;;
32746;SDS011;19118;50.860;13.662;2023-03-01T14:00:07;39.80;;;19.45;;
32746;SDS011;19118;50.860;13.662;2023-03-01T14:05:25;41.65;;;21.55;;
32746;SDS011;19118;50.860;13.662;2023-03-01T14:10:28;45.70;;;22.03;;
32746;SDS011;19118;50.860;13.662;2023-03-01T14:20:56;54.38;;;23.30;;
32746;SDS011;19118;50.860;13.662;2023-03-01T14:25:57;43.85;;;21.85;;
32746;SDS011;19118;50.860;13.662;2023-03-01T14:30:58;42.03;;;22.38;;
32746;SDS011;19118;50.860;13.662;2023-03-01T14:41:16;43.92;;;22.73;;
32746;SDS011;19118;50.860;13.662;2023-03-01T14:46:19;50.47;;;22.75;;
32746;SDS011;19118;50.860;13.662;2023-03-01T14:51:23;44.88;;;23.63;;
32746;SDS011;19118;50.860;13.662;2023-03-01T14:56:24;40.60;;;21.10;;
32746;SDS011;19118;50.860;13.662;2023-03-01T15:01:24;51.10;;;23.53;;
32746;SDS011;19118;50.860;13.662;2023-03-01T15:06:25;39.22;;;18.90;;
32746;SDS011;19118;50.860;13.662;2023-03-01T15:11:29;36.08;;;19.63;;
32746;SDS011;19118;50.860;13.662;2023-03-01T15:16:31;38.95;;;19.67;;
32746;SDS011;19118;50.860;13.662;2023-03-01T15:21:35;43.38;;;21.13;;
32746;SDS011;19118;50.860;13.662;2023-03-01T15:26:42;40.28;;;20.75;;
32746;SDS011;19118;50.860;13.662;2023-03-01T15:31:58;46.08;;;21.48;;
32746;SDS011;19118;50.860;13.662;2023-03-01T15:37:01;48.03;;;22.60;;
32746;SDS011;19118;50.860;13.662;2023-03-01T15:42:05;43.53;;;22.08;;
32746;SDS011;19118;50.860;13.662;2023-03-01T15:52:33;49.38;;;21.80;;
32746;SDS011;19118;50.860;13.662;2023-03-01T15:57:39;51.78;;;22.67;;
32746;SDS011;19118;50.860;13.662;2023-03-01T16:02:40;42.70;;;21.25;;
32746;SDS011;19118;50.860;13.662;2023-03-01T16:07:41;58.38;;;22.25;;
32746;SDS011;19118;50.860;13.662;2023-03-01T16:12:41;45.20;;;21.67;;
32746;SDS011;19118;50.860;13.662;2023-03-01T16:17:42;51.40;;;21.93;;
32746;SDS011;19118;50.860;13.662;2023-03-01T16:22:42;53.60;;;20.52;;
32746;SDS011;19118;50.860;13.662;2023-03-01T16:27:47;42.17;;;20.17;;
32746;SDS011;19118;50.860;13.662;2023-03-01T16:32:49;47.22;;;21.85;;
32746;SDS011;19118;50.860;13.662;2023-03-01T16:37:50;49.20;;;23.38;;
32746;SDS011;19118;50.860;13.662;2023-03-01T16:42:52;66.63;;;28.55;;
32746;SDS011;19118;50.860;13.662;2023-03-01T16:47:55;67.25;;;29.48;;
32746;SDS011;19118;50.860;13.662;2023-03-01T16:52:55;51.47;;;24.10;;
32746;SDS011;19118;50.860;13.662;2023-03-01T16:57:55;59.85;;;23.33;;
32746;SDS011;19118;50.860;13.662;2023-03-01T17:02:56;59.55;;;25.52;;
32746;SDS011;19118;50.860;13.662;2023-03-01T17:07:56;49.13;;;23.80;;
32746;SDS011;19118;50.860;13.662;2023-03-01T17:12:57;49.97;;;23.42;;
32746;SDS011;19118;50.860;13.662;2023-03-01T17:17:57;51.75;;;23.05;;
32746;SDS011;19118;50.860;13.662;2023-03-01T17:22:57;56.60;;;24.98;;
32746;SDS011;19118;50.860;13.662;2023-03-01T17:27:58;57.55;;;23.60;;
32746;SDS011;19118;50.860;13.662;2023-03-01T17:32:59;51.63;;;23.98;;
32746;SDS011;19118;50.860;13.662;2023-03-01T17:37:59;52.63;;;24.10;;
32746;SDS011;19118;50.860;13.662;2023-03-01T17:42:59;67.90;;;26.17;;
32746;SDS011;19118;50.860;13.662;2023-03-01T17:47:59;51.70;;;24.23;;
32746;SDS011;19118;50.860;13.662;2023-03-01T17:53:00;59.35;;;23.23;;
32746;SDS011;19118;50.860;13.662;2023-03-01T17:58:00;61.17;;;24.13;;
32746;SDS011;19118;50.860;13.662;2023-03-01T18:03:01;59.85;;;22.67;;
32746;SDS011;19118;50.860;13.662;2023-03-01T18:08:02;53.75;;;25.02;;
32746;SDS011;19118;50.860;13.662;2023-03-01T18:13:03;48.80;;;22.65;;
32746;SDS011;19118;50.860;13.662;2023-03-01T18:18:04;52.72;;;21.65;;
32746;SDS011;19118;50.860;13.662;2023-03-01T18:23:04;59.53;;;23.77;;
32746;SDS011;19118;50.860;13.662;2023-03-01T18:28:05;57.17;;;23.20;;
32746;SDS011;19118;50.860;13.662;2023-03-01T18:33:06;52.97;;;23.13;;
32746;SDS011;19118;50.860;13.662;2023-03-01T18:38:06;51.05;;;21.52;;
32746;SDS011;19118;50.860;13.662;2023-03-01T18:43:06;43.08;;;19.30;;
32746;SDS011;19118;50.860;13.662;2023-03-01T18:48:06;48.23;;;21.30;;
32746;SDS011;19118;50.860;13.662;2023-03-01T18:53:07;45.55;;;20.85;;
32746;SDS011;19118;50.860;13.662;2023-03-01T18:58:08;44.50;;;21.08;;
32746;SDS011;19118;50.860;13.662;2023-03-01T19:03:09;47.95;;;20.67;;
32746;SDS011;19118;50.860;13.662;2023-03-01T19:08:10;43.28;;;20.17;;
32746;SDS011;19118;50.860;13.662;2023-03-01T19:13:10;41.92;;;20.17;;
32746;SDS011;19118;50.860;13.662;2023-03-01T19:18:10;45.13;;;20.98;;
32746;SDS011;19118;50.860;13.662;2023-03-01T19:23:11;56.08;;;23.23;;
32746;SDS011;19118;50.860;13.662;2023-03-01T19:28:11;52.40;;;22.67;;
32746;SDS011;19118;50.860;13.662;2023-03-01T19:33:11;77.57;;;23.07;;
32746;SDS011;19118;50.860;13.662;2023-03-01T19:38:12;52.97;;;22.63;;
32746;SDS011;19118;50.860;13.662;2023-03-01T19:43:13;53.33;;;22.63;;
32746;SDS011;19118;50.860;13.662;2023-03-01T19:48:14;52.88;;;22.23;;
32746;SDS011;19118;50.860;13.662;2023-03-01T19:53:14;51.10;;;22.23;;
32746;SDS011;19118;50.860;13.662;2023-03-01T19:58:15;47.17;;;20.27;;
32746;SDS011;19118;50.860;13.662;2023-03-01T20:03:15;47.13;;;21.13;;
32746;SDS011;19118;50.860;13.662;2023-03-01T20:08:16;46.00;;;21.17;;
32746;SDS011;19118;50.860;13.662;2023-03-01T20:13:16;43.90;;;19.65;;
32746;SDS011;19118;50.860;13.662;2023-03-01T20:18:20;49.03;;;20.73;;
32746;SDS011;19118;50.860;13.662;2023-03-01T20:23:20;52.55;;;22.90;;
32746;SDS011;19118;50.860;13.662;2023-03-01T20:28:20;48.55;;;22.13;;
32746;SDS011;19118;50.860;13.662;2023-03-01T20:33:21;58.90;;;20.47;;
32746;SDS011;19118;50.860;13.662;2023-03-01T20:38:21;46.97;;;19.23;;
32746;SDS011;19118;50.860;13.662;2023-03-01T20:43:21;50.97;;;20.30;;
32746;SDS011;19118;50.860;13.662;2023-03-01T20:48:22;48.60;;;20.17;;
32746;SDS011;19118;50.860;13.662;2023-03-01T20:53:23;46.53;;;19.25;;
32746;SDS011;19118;50.860;13.662;2023-03-01T20:58:23;45.25;;;19.90;;
32746;SDS011;19118;50.860;13.662;2023-03-01T21:03:23;41.97;;;18.38;;
32746;SDS011;19118;50.860;13.662;2023-03-01T21:08:24;44.67;;;19.02;;
32746;SDS011;19118;50.860;13.662;2023-03-01T21:13:25;42.20;;;19.80;;
32746;SDS011;19118;50.860;13.662;2023-03-01T21:18:26;45.67;;;17.67;;
32746;SDS011;19118;50.860;13.662;2023-03-01T21:23:29;47.65;;;20.02;;
32746;SDS011;19118;50.860;13.662;2023-03-01T21:28:31;42.22;;;17.20;;
32746;SDS011;19118;50.860;13.662;2023-03-01T21:33:33;43.63;;;17.95;;
32746;SDS011;19118;50.860;13.662;2023-03-01T21:38:36;39.03;;;17.20;;
32746;SDS011;19118;50.860;13.662;2023-03-01T21:43:39;43.45;;;17.20;;
32746;SDS011;19118;50.860;13.662;2023-03-01T21:48:40;40.00;;;17.00;;
32746;SDS011;19118;50.860;13.662;2023-03-01T21:53:42;39.40;;;16.92;;
32746;SDS011;19118;50.860;13.662;2023-03-01T21:58:43;46.13;;;18.60;;
32746;SDS011;19118;50.860;13.662;2023-03-01T22:03:43;40.00;;;18.15;;
32746;SDS011;19118;50.860;13.662;2023-03-01T22:08:48;43.97;;;17.60;;
32746;SDS011;19118;50.860;13.662;2023-03-01T22:13:51;45.20;;;16.85;;
32746;SDS011;19118;50.860;13.662;2023-03-01T22:18:53;42.15;;;17.88;;
32746;SDS011;19118;50.860;13.662;2023-03-01T22:23:54;45.10;;;16.92;;
32746;SDS011;19118;50.860;13.662;2023-03-01T22:28:56;37.17;;;17.25;;
32746;SDS011;19118;50.860;13.662;2023-03-01T22:33:58;40.63;;;17.23;;
32746;SDS011;19118;50.860;13.662;2023-03-01T22:38:59;42.53;;;17.63;;
32746;SDS011;19118;50.860;13.662;2023-03-01T22:44:00;36.40;;;16.30;;
32746;SDS011;19118;50.860;13.662;2023-03-01T22:49:01;44.63;;;18.08;;
32746;SDS011;19118;50.860;13.662;2023-03-01T22:54:01;48.15;;;19.95;;
32746;SDS011;19118;50.860;13.662;2023-03-01T22:59:03;46.75;;;19.40;;
32746;SDS011;19118;50.860;13.662;2023-03-01T23:04:08;56.78;;;20.05;;
32746;SDS011;19118;50.860;13.662;2023-03-01T23:09:09;50.00;;;19.73;;
32746;SDS011;19118;50.860;13.662;2023-03-01T23:14:12;50.45;;;21.75;;
32746;SDS011;19118;50.860;13.662;2023-03-01T23:19:13;52.67;;;21.85;;
32746;SDS011;19118;50.860;13.662;2023-03-01T23:24:16;49.45;;;21.90;;
32746;SDS011;19118;50.860;13.662;2023-03-01T23:29:17;52.33;;;21.30;;
32746;SDS011;19118;50.860;13.662;2023-03-01T23:34:18;63.63;;;23.77;;
32746;SDS011;19118;50.860;13.662;2023-03-01T23:39:18;52.95;;;21.10;;
32746;SDS011;19118;50.860;13.662;2023-03-01T23:44:20;49.03;;;21.23;;
32746;SDS011;19118;50.860;13.662;2023-03-01T23:49:21;55.55;;;21.23;;
32746;SDS011;19118;50.860;13.662;2023-03-01T23:54:23;61.55;;;23.38;;
32746;SDS011;19118;50.860;13.662;2023-03-01T23:59:24;56.28;;;22.75;;
